createdAt,value
2017-07-12T00:00:09.925Z,1005.25
2017-07-12T00:00:50.461Z,1005.26
2017-07-12T00:01:30.999Z,1005.24
2017-07-12T00:02:11.549Z,1005.22
2017-07-12T00:02:52.076Z,1005.24
2017-07-12T00:03:32.615Z,1005.21
2017-07-12T00:04:13.159Z,1005.23
2017-07-12T00:04:53.697Z,1005.21
2017-07-12T00:05:34.237Z,1005.18
2017-07-12T00:06:14.779Z,1005.21
2017-07-12T00:06:55.315Z,1005.17
2017-07-12T00:07:35.851Z,1005.17
2017-07-12T00:08:16.383Z,1005.14
2017-07-12T00:08:56.925Z,1005.18
2017-07-12T00:09:37.465Z,1005.13
2017-07-12T00:10:18.012Z,1005.12
2017-07-12T00:10:58.544Z,1005.11
2017-07-12T00:11:39.092Z,1005.08
2017-07-12T00:12:19.636Z,1005.12
2017-07-12T00:13:00.172Z,1005.11
2017-07-12T00:13:40.710Z,1005.08
2017-07-12T00:14:21.252Z,1005.06
2017-07-12T00:15:01.789Z,1005.08
2017-07-12T00:15:42.338Z,1005.1
2017-07-12T00:16:22.872Z,1005.1
2017-07-12T00:17:03.423Z,1005.09
2017-07-12T00:17:43.962Z,1005.08
2017-07-12T00:18:24.507Z,1005.11
2017-07-12T00:19:05.050Z,1005.07
2017-07-12T00:19:45.592Z,1005.07
2017-07-12T00:20:26.132Z,1005.05
2017-07-12T00:21:06.676Z,1005.07
2017-07-12T00:21:47.212Z,1005.05
2017-07-12T00:22:27.750Z,1005.05
2017-07-12T00:23:08.295Z,1005.05
2017-07-12T00:23:48.832Z,1005.04
2017-07-12T00:24:29.378Z,1004.99
2017-07-12T00:25:09.920Z,1004.95
2017-07-12T00:25:50.465Z,1004.96
2017-07-12T00:26:31.006Z,1004.96
2017-07-12T00:27:11.547Z,1004.96
2017-07-12T00:27:52.077Z,1004.99
2017-07-12T00:28:32.622Z,1004.95
2017-07-12T00:29:13.155Z,1004.92
2017-07-12T00:29:53.718Z,1004.89
2017-07-12T00:30:34.253Z,1004.88
2017-07-12T00:31:14.797Z,1004.93
2017-07-12T00:31:55.341Z,1004.89
2017-07-12T00:32:35.877Z,1004.86
2017-07-12T00:33:16.417Z,1004.92
2017-07-12T00:33:56.963Z,1004.88
2017-07-12T00:34:37.504Z,1004.85
2017-07-12T00:35:18.051Z,1004.85
2017-07-12T00:35:58.581Z,1004.87
2017-07-12T00:36:39.124Z,1004.82
2017-07-12T00:37:19.660Z,1004.8
2017-07-12T00:38:00.211Z,1004.79
2017-07-12T00:38:40.760Z,1004.85
2017-07-12T00:39:21.295Z,1004.88
2017-07-12T00:40:01.836Z,1004.87
2017-07-12T00:40:42.374Z,1004.83
2017-07-12T00:41:22.914Z,1004.84
2017-07-12T00:42:03.452Z,1004.81
2017-07-12T00:42:43.988Z,1004.83
2017-07-12T00:43:24.517Z,1004.82
2017-07-12T00:44:05.057Z,1004.79
2017-07-12T00:44:45.600Z,1004.77
2017-07-12T00:45:26.140Z,1004.79
2017-07-12T00:46:06.679Z,1004.84
2017-07-12T00:46:47.215Z,1004.82
2017-07-12T00:47:27.754Z,1004.83
2017-07-12T00:48:08.293Z,1004.82
2017-07-12T00:48:48.836Z,1004.82
2017-07-12T00:49:29.389Z,1004.81
2017-07-12T00:50:09.913Z,1004.8
2017-07-12T00:50:50.456Z,1004.84
2017-07-12T00:51:31.004Z,1004.74
2017-07-12T00:52:11.547Z,1004.76
2017-07-12T00:52:52.082Z,1004.82
2017-07-12T00:53:32.623Z,1004.78
2017-07-12T00:54:13.165Z,1004.84
2017-07-12T00:54:53.700Z,1004.82
2017-07-12T00:55:34.235Z,1004.85
2017-07-12T00:56:14.781Z,1004.84
2017-07-12T00:56:55.315Z,1004.86
2017-07-12T00:57:35.882Z,1004.76
2017-07-12T00:58:16.427Z,1004.79
2017-07-12T00:58:56.965Z,1004.79
2017-07-12T00:59:37.507Z,1004.81
2017-07-12T01:00:18.048Z,1004.82
2017-07-12T01:00:58.591Z,1004.85
2017-07-12T01:01:39.132Z,1004.84
2017-07-12T01:02:19.670Z,1004.81
2017-07-12T01:03:00.206Z,1004.86
2017-07-12T01:03:40.761Z,1004.81
2017-07-12T01:04:21.287Z,1004.82
2017-07-12T01:05:01.827Z,1004.82
2017-07-12T01:05:42.371Z,1004.85
2017-07-12T01:06:22.907Z,1004.84
2017-07-12T01:07:03.449Z,1004.83
2017-07-12T01:07:43.989Z,1004.83
2017-07-12T01:08:24.528Z,1004.81
2017-07-12T01:09:05.062Z,1004.8
2017-07-12T01:09:45.602Z,1004.8
2017-07-12T01:10:26.141Z,1004.74
2017-07-12T01:11:06.680Z,1004.74
2017-07-12T01:11:47.217Z,1004.78
2017-07-12T01:12:27.762Z,1004.76
2017-07-12T01:13:08.306Z,1004.73
2017-07-12T01:13:48.844Z,1004.74
2017-07-12T01:14:29.386Z,1004.72
2017-07-12T01:15:09.924Z,1004.77
2017-07-12T01:15:50.464Z,1004.72
2017-07-12T01:16:31.000Z,1004.73
2017-07-12T01:17:11.542Z,1004.69
2017-07-12T01:17:52.082Z,1004.71
2017-07-12T01:18:32.614Z,1004.76
2017-07-12T01:19:13.158Z,1004.79
2017-07-12T01:19:53.701Z,1004.81
2017-07-12T01:20:34.251Z,1004.79
2017-07-12T01:21:14.791Z,1004.79
2017-07-12T01:21:55.333Z,1004.77
2017-07-12T01:22:35.875Z,1004.79
2017-07-12T01:23:16.422Z,1004.74
2017-07-12T01:23:56.963Z,1004.65
2017-07-12T01:24:37.508Z,1004.63
2017-07-12T01:25:18.044Z,1004.68
2017-07-12T01:25:58.589Z,1004.58
2017-07-12T01:26:39.130Z,1004.61
2017-07-12T01:27:19.668Z,1004.58
2017-07-12T01:28:00.209Z,1004.58
2017-07-12T01:28:40.748Z,1004.59
2017-07-12T01:29:21.287Z,1004.58
2017-07-12T01:30:01.821Z,1004.58
2017-07-12T01:30:42.365Z,1004.55
2017-07-12T01:31:22.916Z,1004.5
2017-07-12T01:32:03.482Z,1004.55
2017-07-12T01:32:44.015Z,1004.55
2017-07-12T01:33:24.553Z,1004.58
2017-07-12T01:34:05.101Z,1004.56
2017-07-12T01:34:45.650Z,1004.53
2017-07-12T01:35:26.198Z,1004.53
2017-07-12T01:36:06.738Z,1004.51
2017-07-12T01:36:47.280Z,1004.51
2017-07-12T01:37:27.822Z,1004.5
2017-07-12T01:38:08.367Z,1004.5
2017-07-12T01:38:48.910Z,1004.5
2017-07-12T01:39:29.449Z,1004.46
2017-07-12T01:40:09.987Z,1004.43
2017-07-12T01:40:50.524Z,1004.48
2017-07-12T01:41:31.063Z,1004.43
2017-07-12T01:42:11.605Z,1004.41
2017-07-12T01:42:52.148Z,1004.44
2017-07-12T01:43:32.691Z,1004.38
2017-07-12T01:44:13.237Z,1004.41
2017-07-12T01:44:53.779Z,1004.43
2017-07-12T01:45:34.320Z,1004.42
2017-07-12T01:46:14.868Z,1004.42
2017-07-12T01:46:55.404Z,1004.42
2017-07-12T01:47:35.946Z,1004.42
2017-07-12T01:48:16.482Z,1004.43
2017-07-12T01:48:57.023Z,1004.45
2017-07-12T01:49:37.567Z,1004.45
2017-07-12T01:50:18.108Z,1004.41
2017-07-12T01:50:58.649Z,1004.4
2017-07-12T01:51:39.196Z,1004.4
2017-07-12T01:52:19.734Z,1004.38
2017-07-12T01:53:00.274Z,1004.39
2017-07-12T01:53:40.806Z,1004.39
2017-07-12T01:54:21.344Z,1004.4
2017-07-12T01:55:01.888Z,1004.39
2017-07-12T01:55:42.433Z,1004.38
2017-07-12T01:56:22.969Z,1004.39
2017-07-12T01:57:03.510Z,1004.41
2017-07-12T01:57:44.051Z,1004.36
2017-07-12T01:58:24.592Z,1004.39
2017-07-12T01:59:05.129Z,1004.37
2017-07-12T01:59:45.666Z,1004.39
2017-07-12T02:00:26.203Z,1004.35
2017-07-12T02:01:06.749Z,1004.36
2017-07-12T02:01:47.294Z,1004.32
2017-07-12T02:02:27.830Z,1004.36
2017-07-12T02:03:08.378Z,1004.32
2017-07-12T02:03:48.919Z,1004.3
2017-07-12T02:04:29.451Z,1004.26
2017-07-12T02:05:09.994Z,1004.27
2017-07-12T02:05:50.531Z,1004.24
2017-07-12T02:06:31.066Z,1004.2
2017-07-12T02:07:11.601Z,1004.19
2017-07-12T02:07:52.152Z,1004.19
2017-07-12T02:08:32.703Z,1004.15
2017-07-12T02:09:13.240Z,1004.17
2017-07-12T02:09:53.783Z,1004.15
2017-07-12T02:10:34.324Z,1004.1
2017-07-12T02:11:14.867Z,1004.12
2017-07-12T02:11:55.412Z,1004.12
2017-07-12T02:12:35.953Z,1004.12
2017-07-12T02:13:16.492Z,1004.11
2017-07-12T02:13:57.029Z,1004.07
2017-07-12T02:14:37.579Z,1004.07
2017-07-12T02:15:18.110Z,1004.06
2017-07-12T02:15:58.659Z,1004.06
2017-07-12T02:16:39.196Z,1004.07
2017-07-12T02:17:19.741Z,1004.04
2017-07-12T02:18:00.322Z,1003.99
2017-07-12T02:18:40.867Z,1004.01
2017-07-12T02:19:21.400Z,1004
2017-07-12T02:20:01.955Z,1003.95
2017-07-12T02:20:42.497Z,1003.94
2017-07-12T02:21:23.040Z,1003.96
2017-07-12T02:22:03.581Z,1003.94
2017-07-12T02:22:44.126Z,1003.92
2017-07-12T02:23:24.660Z,1003.89
2017-07-12T02:24:05.203Z,1003.88
2017-07-12T02:24:45.742Z,1003.88
2017-07-12T02:25:26.287Z,1003.87
2017-07-12T02:26:06.821Z,1003.89
2017-07-12T02:26:47.356Z,1003.89
2017-07-12T02:27:27.901Z,1003.87
2017-07-12T02:28:08.443Z,1003.88
2017-07-12T02:28:48.984Z,1003.84
2017-07-12T02:29:29.524Z,1003.85
2017-07-12T02:30:10.058Z,1003.82
2017-07-12T02:30:50.598Z,1003.81
2017-07-12T02:31:31.145Z,1003.82
2017-07-12T02:32:11.677Z,1003.83
2017-07-12T02:32:52.220Z,1003.79
2017-07-12T02:33:32.761Z,1003.77
2017-07-12T02:34:13.307Z,1003.77
2017-07-12T02:34:53.849Z,1003.75
2017-07-12T02:35:34.397Z,1003.72
2017-07-12T02:36:14.939Z,1003.7
2017-07-12T02:36:55.483Z,1003.72
2017-07-12T02:37:36.025Z,1003.7
2017-07-12T02:38:16.570Z,1003.72
2017-07-12T02:38:57.105Z,1003.72
2017-07-12T02:39:37.641Z,1003.69
2017-07-12T02:40:18.187Z,1003.67
2017-07-12T02:40:58.730Z,1003.64
2017-07-12T02:41:39.273Z,1003.64
2017-07-12T02:42:19.816Z,1003.62
2017-07-12T02:43:00.358Z,1003.64
2017-07-12T02:43:40.908Z,1003.57
2017-07-12T02:44:21.453Z,1003.58
2017-07-12T02:45:01.996Z,1003.59
2017-07-12T02:45:42.541Z,1003.55
2017-07-12T02:46:23.087Z,1003.53
2017-07-12T02:47:03.642Z,1003.51
2017-07-12T02:47:44.237Z,1003.52
2017-07-12T02:48:24.776Z,1003.51
2017-07-12T02:49:05.317Z,1003.45
2017-07-12T02:49:45.864Z,1003.44
2017-07-12T02:50:26.407Z,1003.41
2017-07-12T02:51:06.945Z,1003.41
2017-07-12T02:51:47.483Z,1003.39
2017-07-12T02:52:28.022Z,1003.4
2017-07-12T02:53:08.553Z,1003.39
2017-07-12T02:53:49.096Z,1003.4
2017-07-12T02:54:29.630Z,1003.39
2017-07-12T02:55:10.172Z,1003.39
2017-07-12T02:55:50.713Z,1003.39
2017-07-12T02:56:31.255Z,1003.35
2017-07-12T02:57:11.804Z,1003.38
2017-07-12T02:57:52.345Z,1003.37
2017-07-12T02:58:32.880Z,1003.34
2017-07-12T02:59:13.423Z,1003.36
2017-07-12T02:59:53.965Z,1003.31
2017-07-12T03:00:34.507Z,1003.32
2017-07-12T03:01:15.059Z,1003.28
2017-07-12T03:01:55.602Z,1003.25
2017-07-12T03:02:36.143Z,1003.25
2017-07-12T03:03:16.685Z,1003.27
2017-07-12T03:03:57.231Z,1003.25
2017-07-12T03:04:37.781Z,1003.26
2017-07-12T03:05:18.322Z,1003.25
2017-07-12T03:05:58.863Z,1003.25
2017-07-12T03:06:39.411Z,1003.25
2017-07-12T03:07:19.953Z,1003.23
2017-07-12T03:08:00.487Z,1003.21
2017-07-12T03:08:41.025Z,1003.21
2017-07-12T03:09:21.569Z,1003.18
2017-07-12T03:10:02.111Z,1003.19
2017-07-12T03:10:42.654Z,1003.15
2017-07-12T03:11:23.192Z,1003.13
2017-07-12T03:12:03.750Z,1003.15
2017-07-12T03:12:44.292Z,1003.12
2017-07-12T03:13:24.836Z,1003.16
2017-07-12T03:14:05.382Z,1003.16
2017-07-12T03:14:45.929Z,1003.13
2017-07-12T03:15:26.475Z,1003.15
2017-07-12T03:16:07.014Z,1003.11
2017-07-12T03:16:47.548Z,1003.09
2017-07-12T03:17:28.090Z,1003.09
2017-07-12T03:18:08.630Z,1003.09
2017-07-12T03:18:49.171Z,1003.09
2017-07-12T03:19:29.714Z,1003.08
2017-07-12T03:20:10.260Z,1003.06
2017-07-12T03:20:50.801Z,1003.06
2017-07-12T03:21:31.343Z,1003.08
2017-07-12T03:22:11.887Z,1003.08
2017-07-12T03:22:52.428Z,1003.08
2017-07-12T03:23:32.979Z,1003.05
2017-07-12T03:24:13.521Z,1003.03
2017-07-12T03:24:54.060Z,1003.03
2017-07-12T03:25:34.598Z,1003.03
2017-07-12T03:26:17.105Z,1003.03
2017-07-12T03:26:57.653Z,1003.05
2017-07-12T03:27:38.194Z,1003.09
2017-07-12T03:28:18.727Z,1003.08
2017-07-12T03:28:59.267Z,1003.09
2017-07-12T03:29:39.814Z,1003.09
2017-07-12T03:30:20.359Z,1003.1
2017-07-12T03:31:00.904Z,1003.06
2017-07-12T03:31:41.445Z,1003.04
2017-07-12T03:32:21.989Z,1003.02
2017-07-12T03:33:02.537Z,1003.09
2017-07-12T03:33:43.076Z,1003.12
2017-07-12T03:34:23.612Z,1003.19
2017-07-12T03:35:04.148Z,1003.25
2017-07-12T03:35:44.703Z,1003.14
2017-07-12T03:36:25.248Z,1003.11
2017-07-12T03:37:05.785Z,1003.07
2017-07-12T03:37:46.326Z,1003.08
2017-07-12T03:38:26.872Z,1003.03
2017-07-12T03:39:07.411Z,1003.05
2017-07-12T03:39:47.955Z,1003.09
2017-07-12T03:40:28.498Z,1003.14
2017-07-12T03:41:09.043Z,1003.16
2017-07-12T03:41:49.582Z,1003.19
2017-07-12T03:42:30.121Z,1003.19
2017-07-12T03:43:10.664Z,1003.22
2017-07-12T03:43:51.201Z,1003.24
2017-07-12T03:44:31.742Z,1003.22
2017-07-12T03:45:12.338Z,1003.22
2017-07-12T03:45:52.901Z,1003.19
2017-07-12T03:46:33.434Z,1003.19
2017-07-12T03:47:13.991Z,1003.15
2017-07-12T03:47:54.530Z,1003.21
2017-07-12T03:48:35.074Z,1003.19
2017-07-12T03:49:15.609Z,1003.21
2017-07-12T03:49:56.160Z,1003.23
2017-07-12T03:50:36.691Z,1003.23
2017-07-12T03:51:17.231Z,1003.18
2017-07-12T03:51:57.773Z,1003.17
2017-07-12T03:52:38.316Z,1003.2
2017-07-12T03:53:18.859Z,1003.11
2017-07-12T03:53:59.394Z,1003.14
2017-07-12T03:54:39.935Z,1003.1
2017-07-12T03:55:20.474Z,1003.1
2017-07-12T03:56:01.013Z,1003.1
2017-07-12T03:56:41.551Z,1003.08
2017-07-12T03:57:22.094Z,1003.03
2017-07-12T03:58:02.635Z,1002.99
2017-07-12T03:58:43.184Z,1003.05
2017-07-12T03:59:23.726Z,1003.05
2017-07-12T04:00:04.267Z,1003.15
2017-07-12T04:00:44.815Z,1003.11
2017-07-12T04:01:25.357Z,1003.08
2017-07-12T04:02:05.893Z,1003.06
2017-07-12T04:02:46.436Z,1003.03
2017-07-12T04:03:26.986Z,1003.04
2017-07-12T04:04:07.515Z,1003.01
2017-07-12T04:04:48.060Z,1003.02
2017-07-12T04:05:28.606Z,1002.98
2017-07-12T04:06:09.146Z,1002.99
2017-07-12T04:06:49.695Z,1002.98
2017-07-12T04:07:30.236Z,1002.95
2017-07-12T04:08:10.777Z,1002.94
2017-07-12T04:08:51.318Z,1002.96
2017-07-12T04:09:31.864Z,1002.96
2017-07-12T04:10:12.404Z,1002.99
2017-07-12T04:10:52.946Z,1002.99
2017-07-12T04:11:33.479Z,1002.98
2017-07-12T04:12:14.021Z,1003.05
2017-07-12T04:12:54.564Z,1003.03
2017-07-12T04:13:35.105Z,1003.06
2017-07-12T04:14:15.642Z,1003.03
2017-07-12T04:14:56.183Z,1003.06
2017-07-12T04:15:36.733Z,1003.07
2017-07-12T04:16:17.271Z,1003.03
2017-07-12T04:16:57.795Z,1003.03
2017-07-12T04:17:38.335Z,1003.04
2017-07-12T04:18:18.872Z,1003.01
2017-07-12T04:18:59.418Z,1003
2017-07-12T04:19:40.043Z,1003
2017-07-12T04:20:20.539Z,1003.04
2017-07-12T04:21:01.074Z,1003.01
2017-07-12T04:21:41.618Z,1003.03
2017-07-12T04:22:22.155Z,1003
2017-07-12T04:23:02.700Z,1003
2017-07-12T04:23:43.249Z,1002.95
2017-07-12T04:24:23.792Z,1002.83
2017-07-12T04:25:04.319Z,1002.86
2017-07-12T04:25:44.862Z,1002.8
2017-07-12T04:26:25.403Z,1002.81
2017-07-12T04:27:05.947Z,1002.74
2017-07-12T04:27:46.486Z,1002.77
2017-07-12T04:28:27.025Z,1002.69
2017-07-12T04:29:07.559Z,1002.72
2017-07-12T04:29:48.104Z,1002.68
2017-07-12T04:30:28.649Z,1002.67
2017-07-12T04:31:09.194Z,1002.67
2017-07-12T04:31:49.727Z,1002.63
2017-07-12T04:32:30.274Z,1002.68
2017-07-12T04:33:10.808Z,1002.63
2017-07-12T04:33:51.353Z,1002.6
2017-07-12T04:34:31.904Z,1002.6
2017-07-12T04:35:12.440Z,1002.63
2017-07-12T04:35:52.985Z,1002.64
2017-07-12T04:36:33.520Z,1002.65
2017-07-12T04:37:14.097Z,1002.61
2017-07-12T04:37:54.636Z,1002.58
2017-07-12T04:38:35.174Z,1002.55
2017-07-12T04:39:15.727Z,1002.54
2017-07-12T04:39:56.272Z,1002.55
2017-07-12T04:40:36.825Z,1002.55
2017-07-12T04:41:17.374Z,1002.58
2017-07-12T04:41:57.912Z,1002.56
2017-07-12T04:42:38.453Z,1002.59
2017-07-12T04:43:18.987Z,1002.55
2017-07-12T04:43:59.528Z,1002.58
2017-07-12T04:44:40.066Z,1002.59
2017-07-12T04:45:20.599Z,1002.61
2017-07-12T04:46:01.133Z,1002.57
2017-07-12T04:46:41.678Z,1002.61
2017-07-12T04:47:22.225Z,1002.59
2017-07-12T04:48:02.768Z,1002.61
2017-07-12T04:48:43.312Z,1002.62
2017-07-12T04:49:23.839Z,1002.59
2017-07-12T04:50:04.384Z,1002.54
2017-07-12T04:50:44.920Z,1002.59
2017-07-12T04:51:25.461Z,1002.58
2017-07-12T04:52:05.992Z,1002.53
2017-07-12T04:52:46.534Z,1002.51
2017-07-12T04:53:27.074Z,1002.47
2017-07-12T04:54:07.611Z,1002.55
2017-07-12T04:54:48.147Z,1002.45
2017-07-12T04:55:28.687Z,1002.48
2017-07-12T04:56:09.228Z,1002.51
2017-07-12T04:56:49.767Z,1002.55
2017-07-12T04:57:30.307Z,1002.61
2017-07-12T04:58:10.850Z,1002.61
2017-07-12T04:58:51.399Z,1002.64
2017-07-12T04:59:31.942Z,1002.65
2017-07-12T05:00:12.486Z,1002.62
2017-07-12T05:00:53.030Z,1002.69
2017-07-12T05:01:33.565Z,1002.7
2017-07-12T05:02:14.103Z,1002.74
2017-07-12T05:02:54.647Z,1002.77
2017-07-12T05:03:35.185Z,1002.72
2017-07-12T05:04:15.736Z,1002.68
2017-07-12T05:04:56.274Z,1002.66
2017-07-12T05:05:36.816Z,1002.65
2017-07-12T05:06:17.355Z,1002.65
2017-07-12T05:06:57.894Z,1002.66
2017-07-12T05:07:38.438Z,1002.62
2017-07-12T05:08:18.984Z,1002.56
2017-07-12T05:08:59.523Z,1002.56
2017-07-12T05:09:40.060Z,1002.52
2017-07-12T05:10:20.602Z,1002.46
2017-07-12T05:11:01.145Z,1002.46
2017-07-12T05:11:41.670Z,1002.45
2017-07-12T05:12:22.208Z,1002.46
2017-07-12T05:13:02.751Z,1002.48
2017-07-12T05:13:43.335Z,1002.49
2017-07-12T05:14:23.938Z,1002.48
2017-07-12T05:15:04.523Z,1002.45
2017-07-12T05:15:45.069Z,1002.51
2017-07-12T05:16:25.610Z,1002.47
2017-07-12T05:17:06.147Z,1002.48
2017-07-12T05:17:46.675Z,1002.48
2017-07-12T05:18:27.207Z,1002.5
2017-07-12T05:19:07.752Z,1002.5
2017-07-12T05:19:48.289Z,1002.52
2017-07-12T05:20:28.832Z,1002.53
2017-07-12T05:21:09.374Z,1002.54
2017-07-12T05:21:49.917Z,1002.55
2017-07-12T05:22:30.454Z,1002.61
2017-07-12T05:23:10.997Z,1002.65
2017-07-12T05:23:51.537Z,1002.68
2017-07-12T05:24:32.076Z,1002.68
2017-07-12T05:25:12.609Z,1002.7
2017-07-12T05:25:53.145Z,1002.71
2017-07-12T05:26:33.689Z,1002.68
2017-07-12T05:27:14.231Z,1002.69
2017-07-12T05:27:54.782Z,1002.72
2017-07-12T05:28:35.328Z,1002.67
2017-07-12T05:29:15.861Z,1002.69
2017-07-12T05:29:56.408Z,1002.68
2017-07-12T05:30:36.945Z,1002.7
2017-07-12T05:31:17.487Z,1002.72
2017-07-12T05:31:58.039Z,1002.71
2017-07-12T05:32:38.551Z,1002.72
2017-07-12T05:33:19.096Z,1002.8
2017-07-12T05:33:59.636Z,1002.8
2017-07-12T05:34:40.166Z,1002.8
2017-07-12T05:35:20.697Z,1002.82
2017-07-12T05:36:01.218Z,1002.77
2017-07-12T05:36:41.757Z,1002.78
2017-07-12T05:37:22.300Z,1002.71
2017-07-12T05:38:02.841Z,1002.7
2017-07-12T05:38:43.392Z,1002.7
2017-07-12T05:39:23.992Z,1002.66
2017-07-12T05:40:04.529Z,1002.72
2017-07-12T05:40:45.063Z,1002.74
2017-07-12T05:41:25.606Z,1002.76
2017-07-12T05:42:06.148Z,1002.77
2017-07-12T05:42:46.689Z,1002.81
2017-07-12T05:43:27.234Z,1002.77
2017-07-12T05:44:07.775Z,1002.78
2017-07-12T05:44:48.313Z,1002.78
2017-07-12T05:45:28.851Z,1002.81
2017-07-12T05:46:09.388Z,1002.84
2017-07-12T05:46:49.971Z,1002.81
2017-07-12T05:47:30.465Z,1002.81
2017-07-12T05:48:11.070Z,1002.8
2017-07-12T05:48:51.862Z,1002.78
2017-07-12T05:49:32.464Z,1002.72
2017-07-12T05:50:13.006Z,1002.75
2017-07-12T05:50:53.543Z,1002.79
2017-07-12T05:51:34.091Z,1002.73
2017-07-12T05:52:14.634Z,1002.68
2017-07-12T05:52:55.176Z,1002.7
2017-07-12T05:53:35.716Z,1002.76
2017-07-12T05:54:16.256Z,1002.74
2017-07-12T05:54:56.795Z,1002.69
2017-07-12T05:55:37.333Z,1002.73
2017-07-12T05:56:17.870Z,1002.78
2017-07-12T05:56:58.405Z,1002.72
2017-07-12T05:57:38.939Z,1002.73
2017-07-12T05:58:19.486Z,1002.73
2017-07-12T05:59:00.001Z,1002.72
2017-07-12T05:59:40.528Z,1002.71
2017-07-12T06:00:21.066Z,1002.71
2017-07-12T06:01:01.606Z,1002.68
2017-07-12T06:01:42.139Z,1002.69
2017-07-12T06:02:22.683Z,1002.69
2017-07-12T06:03:03.221Z,1002.71
2017-07-12T06:03:43.761Z,1002.69
2017-07-12T06:04:24.290Z,1002.7
2017-07-12T06:05:04.816Z,1002.71
2017-07-12T06:05:45.361Z,1002.7
2017-07-12T06:06:25.893Z,1002.65
2017-07-12T06:07:06.434Z,1002.68
2017-07-12T06:07:46.975Z,1002.65
2017-07-12T06:08:27.519Z,1002.64
2017-07-12T06:09:08.059Z,1002.63
2017-07-12T06:09:48.593Z,1002.64
2017-07-12T06:10:29.133Z,1002.6
2017-07-12T06:11:09.693Z,1002.62
2017-07-12T06:11:50.230Z,1002.6
2017-07-12T06:12:30.771Z,1002.61
2017-07-12T06:13:11.314Z,1002.61
2017-07-12T06:13:51.847Z,1002.63
2017-07-12T06:14:32.393Z,1002.62
2017-07-12T06:15:12.935Z,1002.6
2017-07-12T06:15:53.497Z,1002.61
2017-07-12T06:16:34.034Z,1002.63
2017-07-12T06:17:14.575Z,1002.66
2017-07-12T06:17:55.117Z,1002.64
2017-07-12T06:18:35.635Z,1002.64
2017-07-12T06:19:16.170Z,1002.63
2017-07-12T06:19:56.721Z,1002.63
2017-07-12T06:20:37.262Z,1002.61
2017-07-12T06:21:17.801Z,1002.6
2017-07-12T06:21:58.339Z,1002.62
2017-07-12T06:22:38.872Z,1002.57
2017-07-12T06:23:19.417Z,1002.62
2017-07-12T06:23:59.955Z,1002.59
2017-07-12T06:24:40.493Z,1002.6
2017-07-12T06:25:21.037Z,1002.61
2017-07-12T06:26:01.574Z,1002.62
2017-07-12T06:26:42.117Z,1002.59
2017-07-12T06:27:22.647Z,1002.61
2017-07-12T06:28:03.190Z,1002.64
2017-07-12T06:28:43.733Z,1002.6
2017-07-12T06:29:24.276Z,1002.58
2017-07-12T06:30:04.796Z,1002.56
2017-07-12T06:30:45.331Z,1002.55
2017-07-12T06:31:26.088Z,1002.56
2017-07-12T06:32:06.626Z,1002.54
2017-07-12T06:32:47.171Z,1002.48
2017-07-12T06:33:27.715Z,1002.49
2017-07-12T06:34:08.257Z,1002.52
2017-07-12T06:34:48.795Z,1002.45
2017-07-12T06:35:29.336Z,1002.45
2017-07-12T06:36:09.863Z,1002.44
2017-07-12T06:36:50.402Z,1002.4
2017-07-12T06:37:30.944Z,1002.36
2017-07-12T06:38:11.489Z,1002.38
2017-07-12T06:38:52.025Z,1002.36
2017-07-12T06:39:32.563Z,1002.34
2017-07-12T06:40:13.099Z,1002.4
2017-07-12T06:40:53.642Z,1002.36
2017-07-12T06:41:34.178Z,1002.35
2017-07-12T06:42:14.714Z,1002.37
2017-07-12T06:42:55.246Z,1002.32
2017-07-12T06:43:35.778Z,1002.33
2017-07-12T06:44:16.317Z,1002.33
2017-07-12T06:44:57.273Z,1002.31
2017-07-12T06:45:37.813Z,1002.33
2017-07-12T06:46:18.347Z,1002.31
2017-07-12T06:46:58.892Z,1002.31
2017-07-12T06:47:39.423Z,1002.32
2017-07-12T06:48:19.947Z,1002.35
2017-07-12T06:49:00.492Z,1002.28
2017-07-12T06:49:41.037Z,1002.34
2017-07-12T06:50:21.582Z,1002.29
2017-07-12T06:51:02.126Z,1002.29
2017-07-12T06:51:42.670Z,1002.3
2017-07-12T06:52:23.285Z,1002.27
2017-07-12T06:53:03.820Z,1002.23
2017-07-12T06:53:44.357Z,1002.23
2017-07-12T06:54:24.898Z,1002.17
2017-07-12T06:55:05.439Z,1002.2
2017-07-12T06:55:45.984Z,1002.14
2017-07-12T06:56:26.528Z,1002.17
2017-07-12T06:57:07.070Z,1002.17
2017-07-12T06:57:47.583Z,1002.17
2017-07-12T06:58:28.097Z,1002.15
2017-07-12T06:59:08.639Z,1002.14
2017-07-12T06:59:49.180Z,1002.14
2017-07-12T07:00:30.549Z,1002.14
2017-07-12T07:01:11.089Z,1002.15
2017-07-12T07:01:51.654Z,1002.16
2017-07-12T07:02:32.188Z,1002.14
2017-07-12T07:03:12.710Z,1002.17
2017-07-12T07:03:53.237Z,1002.14
2017-07-12T07:04:33.764Z,1002.11
2017-07-12T07:05:14.306Z,1002.1
2017-07-12T07:05:54.850Z,1002.11
2017-07-12T07:06:35.377Z,1002.04
2017-07-12T07:07:15.918Z,1002.03
2017-07-12T07:07:56.451Z,1002.05
2017-07-12T07:08:36.987Z,1001.98
2017-07-12T07:09:17.528Z,1001.96
2017-07-12T07:09:58.069Z,1001.97
2017-07-12T07:10:38.608Z,1001.96
2017-07-12T07:11:19.149Z,1001.95
2017-07-12T07:11:59.686Z,1001.92
2017-07-12T07:12:40.220Z,1001.94
2017-07-12T07:13:20.753Z,1001.95
2017-07-12T07:14:01.294Z,1001.91
2017-07-12T07:14:41.832Z,1001.92
2017-07-12T07:15:22.371Z,1001.91
2017-07-12T07:16:02.911Z,1001.93
2017-07-12T07:16:43.456Z,1001.93
2017-07-12T07:17:23.994Z,1001.9
2017-07-12T07:18:04.528Z,1001.9
2017-07-12T07:18:45.074Z,1001.9
2017-07-12T07:19:25.599Z,1001.91
2017-07-12T07:20:06.136Z,1001.86
2017-07-12T07:20:46.700Z,1001.88
2017-07-12T07:21:27.242Z,1001.88
2017-07-12T07:22:07.779Z,1001.86
2017-07-12T07:22:48.318Z,1001.89
2017-07-12T07:23:28.862Z,1001.91
2017-07-12T07:24:09.397Z,1001.93
2017-07-12T07:24:49.934Z,1001.88
2017-07-12T07:25:30.468Z,1001.9
2017-07-12T07:26:11.015Z,1001.86
2017-07-12T07:26:51.550Z,1001.88
2017-07-12T07:27:32.089Z,1001.83
2017-07-12T07:28:12.627Z,1001.84
2017-07-12T07:28:53.163Z,1001.82
2017-07-12T07:29:33.691Z,1001.89
2017-07-12T07:30:14.234Z,1001.82
2017-07-12T07:30:54.769Z,1001.83
2017-07-12T07:31:35.311Z,1001.8
2017-07-12T07:32:15.853Z,1001.78
2017-07-12T07:32:56.394Z,1001.79
2017-07-12T07:33:36.936Z,1001.77
2017-07-12T07:34:17.480Z,1001.75
2017-07-12T07:34:58.027Z,1001.73
2017-07-12T07:35:38.567Z,1001.76
2017-07-12T07:36:19.109Z,1001.73
2017-07-12T07:36:59.645Z,1001.7
2017-07-12T07:37:40.179Z,1001.73
2017-07-12T07:38:20.725Z,1001.71
2017-07-12T07:39:01.264Z,1001.71
2017-07-12T07:39:41.810Z,1001.68
2017-07-12T07:40:22.352Z,1001.67
2017-07-12T07:41:02.889Z,1001.68
2017-07-12T07:41:43.438Z,1001.7
2017-07-12T07:42:23.979Z,1001.78
2017-07-12T07:43:04.505Z,1001.74
2017-07-12T07:43:45.039Z,1001.76
2017-07-12T07:44:25.587Z,1001.75
2017-07-12T07:45:06.132Z,1001.76
2017-07-12T07:45:46.669Z,1001.76
2017-07-12T07:46:27.215Z,1001.81
2017-07-12T07:47:07.777Z,1001.75
2017-07-12T07:47:48.319Z,1001.78
2017-07-12T07:48:28.869Z,1001.76
2017-07-12T07:49:09.417Z,1001.76
2017-07-12T07:49:49.958Z,1001.77
2017-07-12T07:50:30.500Z,1001.77
2017-07-12T07:51:11.039Z,1001.75
2017-07-12T07:51:51.581Z,1001.74
2017-07-12T07:52:32.118Z,1001.73
2017-07-12T07:53:12.661Z,1001.74
2017-07-12T07:53:53.191Z,1001.73
2017-07-12T07:54:33.732Z,1001.7
2017-07-12T07:55:14.275Z,1001.7
2017-07-12T07:55:54.822Z,1001.67
2017-07-12T07:56:35.362Z,1001.71
2017-07-12T07:57:15.904Z,1001.72
2017-07-12T07:57:56.441Z,1001.7
2017-07-12T07:58:36.979Z,1001.68
2017-07-12T07:59:17.500Z,1001.7
2017-07-12T07:59:58.048Z,1001.65
2017-07-12T08:00:38.584Z,1001.69
2017-07-12T08:01:19.129Z,1001.66
2017-07-12T08:01:59.671Z,1001.68
2017-07-12T08:02:40.218Z,1001.65
2017-07-12T08:03:20.762Z,1001.67
2017-07-12T08:04:01.313Z,1001.67
2017-07-12T08:04:41.858Z,1001.68
2017-07-12T08:05:22.393Z,1001.68
2017-07-12T08:06:02.947Z,1001.68
2017-07-12T08:06:43.482Z,1001.64
2017-07-12T08:07:24.026Z,1001.64
2017-07-12T08:08:04.557Z,1001.63
2017-07-12T08:08:45.106Z,1001.66
2017-07-12T08:09:25.646Z,1001.68
2017-07-12T08:10:06.191Z,1001.66
2017-07-12T08:10:46.725Z,1001.66
2017-07-12T08:11:27.266Z,1001.71
2017-07-12T08:12:07.808Z,1001.69